Time;durP1;ratioP1;P1;durP2;ratioP2;P2;SDS_P1;SDS_P2;PMS_P1;PMS_P2;Temp;Humidity;BMP_temperature;BMP_pressure;BME280_temperature;BME280_humidity;BME280_pressure;Samples;Min_cycle;Max_cycle;Signal;HPM_P1;HPM_P2
2024/03/03 00:02:12;;;;;;;38.40;25.70;;;10.20;99.90;;;;;;5055566;28;20185;-63
2024/03/03 00:04:37;;;;;;;42.63;25.97;;;10.20;99.90;;;;;;5055206;28;20452;-64
2024/03/03 00:07:04;;;;;;;40.43;27.50;;;10.20;99.90;;;;;;5034994;28;20193;-63
2024/03/03 00:09:30;;;;;;;39.53;27.30;;;10.20;99.90;;;;;;5060194;28;20311;-62
2024/03/03 00:11:55;;;;;;;37.20;26.30;;;10.20;99.90;;;;;;5060986;28;20490;-64
2024/03/03 00:14:21;;;;;;;41.03;28.03;;;10.20;99.90;;;;;;5058761;28;20896;-63
2024/03/03 00:16:47;;;;;;;40.97;27.80;;;10.10;99.90;;;;;;5059383;28;20183;-62
2024/03/03 00:19:13;;;;;;;41.40;26.13;;;10.10;99.90;;;;;;5063948;28;20507;-63
2024/03/03 00:21:39;;;;;;;38.83;27.63;;;10.10;99.90;;;;;;5056433;28;20432;-63
2024/03/03 00:24:05;;;;;;;43.90;28.33;;;10.00;99.90;;;;;;5058642;28;20187;-63
2024/03/03 00:26:33;;;;;;;37.87;27.00;;;10.00;99.90;;;;;;5055478;28;20583;-62
2024/03/03 00:29:00;;;;;;;37.70;27.70;;;10.00;99.90;;;;;;5063820;28;20426;-63
2024/03/03 00:31:26;;;;;;;48.33;29.93;;;9.90;99.90;;;;;;5066929;28;20408;-63
2024/03/03 00:33:52;;;;;;;46.53;30.90;;;9.90;99.90;;;;;;5063366;28;20433;-63
2024/03/03 00:36:18;;;;;;;45.73;29.30;;;9.90;99.90;;;;;;5061409;28;20883;-63
2024/03/03 00:38:44;;;;;;;43.73;29.37;;;9.90;99.90;;;;;;5055467;28;20797;-63
2024/03/03 00:41:10;;;;;;;53.03;30.30;;;9.90;99.90;;;;;;5057357;28;20428;-65
2024/03/03 00:43:36;;;;;;;45.47;27.33;;;9.80;99.90;;;;;;5059728;28;20457;-64
2024/03/03 00:46:02;;;;;;;41.93;28.93;;;9.80;99.90;;;;;;5058333;28;20214;-63
2024/03/03 00:48:28;;;;;;;45.37;30.63;;;9.80;99.90;;;;;;5058778;28;20433;-63
2024/03/03 00:50:53;;;;;;;46.20;30.60;;;9.80;99.90;;;;;;5061643;28;20186;-62
2024/03/03 00:53:22;;;;;;;49.27;30.23;;;9.70;99.90;;;;;;5072052;28;20219;-62
2024/03/03 00:55:48;;;;;;;42.40;28.67;;;9.70;99.90;;;;;;5055432;28;20211;-63
2024/03/03 00:58:14;;;;;;;44.43;29.07;;;9.70;99.90;;;;;;5058830;28;20468;-63
2024/03/03 01:00:40;;;;;;;42.30;28.53;;;9.60;99.90;;;;;;5057501;28;20421;-64
2024/03/03 01:03:06;;;;;;;52.80;30.73;;;9.60;99.90;;;;;;5055946;28;20712;-63
2024/03/03 01:05:32;;;;;;;46.87;29.97;;;9.50;99.90;;;;;;5066847;28;20516;-64
2024/03/03 01:07:57;;;;;;;44.43;29.50;;;9.50;99.90;;;;;;5062585;28;20810;-64
2024/03/03 01:10:23;;;;;;;49.20;33.33;;;9.40;99.90;;;;;;5055348;28;20183;-64
2024/03/03 01:12:49;;;;;;;44.30;30.53;;;9.40;99.90;;;;;;5058208;28;20254;-63
2024/03/03 01:15:14;;;;;;;51.20;32.37;;;9.40;99.90;;;;;;5061115;28;20212;-64
2024/03/03 01:17:40;;;;;;;46.37;32.47;;;9.40;99.90;;;;;;5065497;28;20190;-64
2024/03/03 01:20:06;;;;;;;47.87;31.77;;;9.30;99.90;;;;;;5067682;28;20588;-64
2024/03/03 01:22:32;;;;;;;42.80;30.83;;;9.30;99.90;;;;;;5057844;28;20604;-63
2024/03/03 01:24:58;;;;;;;54.03;33.17;;;9.30;99.90;;;;;;5052230;28;20493;-64
2024/03/03 01:27:24;;;;;;;47.90;32.00;;;9.30;99.90;;;;;;5065979;28;20435;-64
2024/03/03 01:29:50;;;;;;;47.90;30.60;;;9.30;99.90;;;;;;5056973;28;20421;-64
2024/03/03 01:32:16;;;;;;;47.67;29.60;;;9.20;99.90;;;;;;5067593;28;20963;-64
2024/03/03 01:34:42;;;;;;;41.97;29.40;;;9.20;99.90;;;;;;5057680;28;20206;-64
2024/03/03 01:37:07;;;;;;;45.23;33.43;;;9.20;99.90;;;;;;5055681;28;20247;-64
2024/03/03 01:39:36;;;;;;;45.50;32.10;;;9.20;99.90;;;;;;5057939;28;20266;-63
2024/03/03 01:42:01;;;;;;;52.97;30.90;;;9.20;99.90;;;;;;5055018;28;20182;-63
2024/03/03 01:44:27;;;;;;;50.17;30.70;;;9.20;99.90;;;;;;5054100;28;20535;-63
2024/03/03 01:46:54;;;;;;;52.00;33.23;;;9.10;99.90;;;;;;5063323;28;20286;-63
2024/03/03 01:49:20;;;;;;;53.30;29.87;;;9.10;99.90;;;;;;5068805;28;20254;-63
2024/03/03 01:51:46;;;;;;;39.47;29.90;;;9.10;99.90;;;;;;5058158;28;20431;-64
2024/03/03 01:54:12;;;;;;;52.40;31.73;;;9.00;99.90;;;;;;5060474;28;20251;-62
2024/03/03 01:56:43;;;;;;;46.97;32.47;;;9.00;99.90;;;;;;5055372;28;20439;-63
2024/03/03 01:59:09;;;;;;;53.80;34.00;;;9.00;99.90;;;;;;5055783;28;20266;-63
2024/03/03 02:01:36;;;;;;;52.53;34.20;;;9.00;99.90;;;;;;5058789;28;20456;-63
2024/03/03 02:04:02;;;;;;;47.77;32.60;;;9.00;99.90;;;;;;5055568;28;20757;-63
2024/03/03 02:06:31;;;;;;;48.57;32.10;;;9.00;99.90;;;;;;5058105;28;20452;-62
2024/03/03 02:08:58;;;;;;;47.97;32.17;;;8.90;99.90;;;;;;5059187;28;20412;-63
2024/03/03 02:11:23;;;;;;;51.40;31.87;;;8.90;99.90;;;;;;5059287;28;20435;-63
2024/03/03 02:13:49;;;;;;;49.27;30.03;;;8.90;99.90;;;;;;5056706;28;20509;-63
2024/03/03 02:16:15;;;;;;;49.77;33.30;;;8.90;99.90;;;;;;5057041;28;20649;-62
2024/03/03 02:18:40;;;;;;;51.57;32.07;;;8.90;99.90;;;;;;5056194;28;20178;-63
2024/03/03 02:21:06;;;;;;;49.17;31.47;;;8.90;99.90;;;;;;5054960;28;20190;-62
2024/03/03 02:23:31;;;;;;;48.57;33.07;;;8.80;99.90;;;;;;5051009;28;20196;-63
2024/03/03 02:25:57;;;;;;;49.43;32.40;;;8.80;99.90;;;;;;5053916;28;20206;-63
2024/03/03 02:28:25;;;;;;;53.60;31.27;;;8.80;99.90;;;;;;5053478;28;20214;-63
2024/03/03 02:30:51;;;;;;;57.27;31.90;;;8.80;99.90;;;;;;5056319;28;20249;-64
2024/03/03 02:33:16;;;;;;;52.17;31.47;;;8.70;99.90;;;;;;5061761;28;20800;-64
2024/03/03 02:35:42;;;;;;;41.83;31.37;;;8.80;99.90;;;;;;5063514;28;20213;-64
2024/03/03 02:38:07;;;;;;;48.37;32.67;;;8.70;99.90;;;;;;5056957;28;20700;-64
2024/03/03 02:40:33;;;;;;;49.00;31.97;;;8.70;99.90;;;;;;5056993;28;20230;-63
2024/03/03 02:43:00;;;;;;;45.57;30.07;;;8.70;99.90;;;;;;5054031;28;20186;-63
2024/03/03 02:45:26;;;;;;;45.93;33.03;;;8.70;99.90;;;;;;5064722;28;20199;-63
2024/03/03 02:47:53;;;;;;;53.67;34.47;;;8.70;99.90;;;;;;5056586;28;20903;-62
2024/03/03 02:50:19;;;;;;;48.90;31.63;;;8.70;99.90;;;;;;5058455;28;20181;-63
2024/03/03 02:52:45;;;;;;;47.07;31.43;;;8.60;99.90;;;;;;5061046;28;20586;-62
2024/03/03 02:55:10;;;;;;;53.43;31.50;;;8.70;99.90;;;;;;5063679;28;20624;-62
2024/03/03 02:57:36;;;;;;;53.60;37.37;;;8.60;99.90;;;;;;5064284;28;20181;-63
2024/03/03 03:00:02;;;;;;;49.00;30.50;;;8.60;99.90;;;;;;5053743;28;20265;-64
2024/03/03 03:02:28;;;;;;;53.23;33.20;;;8.60;99.90;;;;;;5057173;28;20300;-63
2024/03/03 03:04:55;;;;;;;52.20;32.93;;;8.60;99.90;;;;;;5054956;28;20993;-63
2024/03/03 03:07:21;;;;;;;58.20;33.47;;;8.60;99.90;;;;;;5055935;28;20270;-63
2024/03/03 03:09:47;;;;;;;52.33;34.60;;;8.60;99.90;;;;;;5060104;28;20534;-65
2024/03/03 03:12:12;;;;;;;50.07;34.60;;;8.50;99.90;;;;;;5056565;28;20617;-62
2024/03/03 03:14:38;;;;;;;59.37;34.90;;;8.60;99.90;;;;;;5055491;28;20300;-63
2024/03/03 03:17:03;;;;;;;47.33;31.30;;;8.60;99.90;;;;;;5053614;28;20179;-64
2024/03/03 03:19:32;;;;;;;48.30;32.57;;;8.60;99.90;;;;;;5060559;28;20182;-64
2024/03/03 03:21:58;;;;;;;45.90;32.50;;;8.60;99.90;;;;;;5053404;28;20183;-64
2024/03/03 03:24:23;;;;;;;56.13;34.10;;;8.60;99.90;;;;;;5058927;28;20493;-64
2024/03/03 03:26:49;;;;;;;53.43;34.23;;;8.60;99.90;;;;;;5055295;28;20434;-64
2024/03/03 03:29:15;;;;;;;54.00;33.50;;;8.50;99.90;;;;;;5053254;28;20657;-63
2024/03/03 03:31:40;;;;;;;54.57;33.90;;;8.50;99.90;;;;;;5053309;28;20209;-63
2024/03/03 03:34:06;;;;;;;57.07;33.03;;;8.50;99.90;;;;;;5053604;28;20190;-64
2024/03/03 03:36:31;;;;;;;54.67;35.00;;;8.50;99.90;;;;;;5053491;28;20214;-63
2024/03/03 03:38:59;;;;;;;45.37;31.00;;;8.50;99.90;;;;;;5057685;28;20208;-63
2024/03/03 03:41:24;;;;;;;54.30;35.70;;;8.50;99.90;;;;;;5052707;28;20182;-64
2024/03/03 03:43:50;;;;;;;61.10;34.13;;;8.50;99.90;;;;;;5053940;28;20422;-63
2024/03/03 03:46:15;;;;;;;47.93;33.60;;;8.50;99.90;;;;;;5059329;28;20244;-66
2024/03/03 03:48:41;;;;;;;56.50;36.37;;;8.50;99.90;;;;;;5055510;28;20201;-65
2024/03/03 03:51:07;;;;;;;49.70;35.10;;;8.50;99.90;;;;;;5053312;28;20187;-64
2024/03/03 03:53:33;;;;;;;57.80;34.00;;;8.50;99.90;;;;;;5057639;28;20711;-64
2024/03/03 03:55:58;;;;;;;52.80;35.73;;;8.50;99.90;;;;;;5059212;28;20547;-64
2024/03/03 03:58:24;;;;;;;59.20;37.40;;;8.50;99.90;;;;;;5053223;28;20801;-64
2024/03/03 04:00:49;;;;;;;52.07;32.27;;;8.50;99.90;;;;;;5045813;28;20192;-63
2024/03/03 04:03:15;;;;;;;56.77;35.30;;;8.50;99.90;;;;;;5054293;28;20181;-63
2024/03/03 04:05:40;;;;;;;56.57;36.73;;;8.50;99.90;;;;;;5061974;28;20239;-63
2024/03/03 04:08:06;;;;;;;60.77;36.07;;;8.50;99.90;;;;;;5065108;28;20640;-64
2024/03/03 04:10:32;;;;;;;58.03;36.27;;;8.50;99.90;;;;;;5059247;28;20254;-64
2024/03/03 04:12:57;;;;;;;52.77;34.73;;;8.50;99.90;;;;;;5053139;28;20190;-63
2024/03/03 04:15:23;;;;;;;56.57;36.93;;;8.50;99.90;;;;;;5055695;28;20203;-65
2024/03/03 04:17:48;;;;;;;50.30;34.40;;;8.50;99.90;;;;;;5056659;28;20918;-64
2024/03/03 04:20:15;;;;;;;55.80;34.53;;;8.50;99.90;;;;;;5061764;28;20608;-64
2024/03/03 04:22:41;;;;;;;57.63;36.10;;;8.50;99.90;;;;;;5051728;28;20228;-64
2024/03/03 04:25:07;;;;;;;54.07;35.17;;;8.50;99.90;;;;;;5053650;28;20479;-64
2024/03/03 04:27:32;;;;;;;53.53;35.20;;;8.50;99.90;;;;;;5065037;28;20194;-63
2024/03/03 04:29:58;;;;;;;56.23;36.60;;;8.50;99.90;;;;;;5065010;28;20214;-63
2024/03/03 04:32:24;;;;;;;54.30;35.80;;;8.50;99.90;;;;;;5058714;28;20284;-63
2024/03/03 04:34:50;;;;;;;58.33;37.30;;;8.50;99.90;;;;;;5053127;28;20213;-63
2024/03/03 04:37:16;;;;;;;55.67;37.47;;;8.60;99.90;;;;;;5055737;28;20175;-64
2024/03/03 04:39:41;;;;;;;62.87;38.80;;;8.60;99.90;;;;;;5064180;28;20408;-64
2024/03/03 04:42:08;;;;;;;56.53;36.37;;;8.60;99.90;;;;;;5053070;28;20190;-62
2024/03/03 04:44:33;;;;;;;54.37;35.60;;;8.60;99.90;;;;;;5053308;28;20214;-62
2024/03/03 04:46:59;;;;;;;61.13;35.60;;;8.60;99.90;;;;;;5053294;28;20439;-63
2024/03/03 04:49:24;;;;;;;59.20;35.60;;;8.60;99.90;;;;;;5057506;28;20290;-64
2024/03/03 04:51:50;;;;;;;58.23;35.70;;;8.60;99.90;;;;;;5055339;28;20190;-63
2024/03/03 04:54:16;;;;;;;52.17;36.50;;;8.60;99.90;;;;;;5054755;28;20763;-63
2024/03/03 04:56:41;;;;;;;52.00;34.53;;;8.70;99.90;;;;;;5058424;28;20304;-64
2024/03/03 04:59:07;;;;;;;53.40;36.13;;;8.70;99.90;;;;;;5057014;28;20175;-63
2024/03/03 05:01:33;;;;;;;54.60;36.90;;;8.70;99.90;;;;;;5060169;28;20189;-63
2024/03/03 05:04:00;;;;;;;53.77;37.17;;;8.70;99.90;;;;;;5059164;28;20209;-64
2024/03/03 05:06:25;;;;;;;56.03;35.77;;;8.70;99.90;;;;;;5067499;28;20500;-64
2024/03/03 05:08:51;;;;;;;52.83;35.00;;;8.70;99.90;;;;;;5066242;28;20507;-64
2024/03/03 05:11:17;;;;;;;56.03;36.43;;;8.80;99.90;;;;;;5067361;28;20271;-64
2024/03/03 05:13:42;;;;;;;49.73;34.13;;;8.70;99.90;;;;;;5067532;28;20182;-64
2024/03/03 05:16:08;;;;;;;59.20;39.30;;;8.70;99.90;;;;;;5060693;28;20310;-64
2024/03/03 05:18:34;;;;;;;57.27;36.53;;;8.70;99.90;;;;;;5068285;28;20186;-64
2024/03/03 05:21:00;;;;;;;48.40;34.63;;;8.70;99.90;;;;;;5065186;28;20175;-64
2024/03/03 05:23:25;;;;;;;60.10;32.50;;;8.70;99.90;;;;;;5067323;28;20195;-64
2024/03/03 05:25:51;;;;;;;51.53;36.17;;;8.70;99.90;;;;;;5068016;28;20242;-64
2024/03/03 05:28:18;;;;;;;54.37;35.23;;;8.70;99.90;;;;;;5065115;28;20190;-64
2024/03/03 05:30:43;;;;;;;57.40;36.00;;;8.80;99.90;;;;;;5067392;28;20553;-63
2024/03/03 05:33:09;;;;;;;54.60;35.50;;;8.80;99.90;;;;;;5056978;28;20436;-63
2024/03/03 05:35:36;;;;;;;58.60;36.33;;;8.80;99.90;;;;;;5060015;28;20245;-60
2024/03/03 05:38:02;;;;;;;61.73;33.77;;;8.80;99.90;;;;;;5056570;28;20258;-62
2024/03/03 05:40:28;;;;;;;53.83;36.50;;;8.80;99.90;;;;;;5057157;28;20460;-63
2024/03/03 05:42:53;;;;;;;49.93;35.93;;;8.90;99.90;;;;;;5055552;28;20194;-63
2024/03/03 05:45:19;;;;;;;47.53;34.13;;;8.90;99.90;;;;;;5061801;28;20291;-63
2024/03/03 05:47:44;;;;;;;51.27;35.83;;;8.90;99.90;;;;;;5065848;28;20189;-63
2024/03/03 05:50:10;;;;;;;51.53;36.03;;;9.00;99.90;;;;;;5055073;28;20190;-62
2024/03/03 05:52:36;;;;;;;54.90;33.30;;;9.00;99.90;;;;;;5041282;28;20642;-64
2024/03/03 05:55:02;;;;;;;51.83;35.87;;;9.00;99.90;;;;;;5055847;28;20464;-64
2024/03/03 05:57:29;;;;;;;49.13;33.50;;;9.10;99.90;;;;;;5059319;28;20213;-64
2024/03/03 05:59:54;;;;;;;53.43;33.90;;;9.10;99.90;;;;;;5058344;28;20421;-64
2024/03/03 06:02:22;;;;;;;55.77;34.57;;;9.10;99.90;;;;;;5057747;28;20493;-63
2024/03/03 06:04:47;;;;;;;53.57;36.77;;;9.10;99.90;;;;;;5057551;28;20293;-64
2024/03/03 06:07:14;;;;;;;58.90;38.30;;;9.20;99.90;;;;;;5053348;28;20537;-64
2024/03/03 06:09:40;;;;;;;53.37;37.70;;;9.20;99.90;;;;;;5059684;28;20683;-63
2024/03/03 06:12:06;;;;;;;49.40;37.00;;;9.20;99.90;;;;;;5056117;28;20464;-63
2024/03/03 06:14:32;;;;;;;52.37;34.53;;;9.20;99.90;;;;;;5056122;28;20468;-64
2024/03/03 06:16:58;;;;;;;46.00;33.33;;;9.20;99.90;;;;;;5058289;28;20506;-64
2024/03/03 06:19:23;;;;;;;49.67;35.13;;;9.30;99.90;;;;;;5055687;28;20182;-63
2024/03/03 06:21:52;;;;;;;51.87;35.23;;;9.30;99.90;;;;;;5058229;28;20261;-64
2024/03/03 06:24:21;;;;;;;48.33;35.53;;;9.40;99.90;;;;;;5054031;28;20676;-63
2024/03/03 06:26:47;;;;;;;54.10;37.03;;;9.40;99.90;;;;;;5064168;28;20460;-63
2024/03/03 06:29:12;;;;;;;52.93;36.67;;;9.40;99.90;;;;;;5057053;28;20466;-64
2024/03/03 06:31:45;;;;;;;52.43;35.37;;;9.40;99.90;;;;;;5059747;28;20189;-62
2024/03/03 06:34:11;;;;;;;56.83;35.00;;;9.50;99.90;;;;;;5056428;28;20205;-64
2024/03/03 06:36:37;;;;;;;54.50;36.30;;;9.50;99.90;;;;;;5061276;28;20969;-63
2024/03/03 06:39:04;;;;;;;51.27;35.37;;;9.50;99.90;;;;;;5056858;28;20439;-64
2024/03/03 06:41:30;;;;;;;48.80;35.27;;;9.50;99.90;;;;;;5059620;28;20429;-64
2024/03/03 06:43:56;;;;;;;49.43;34.10;;;9.50;99.90;;;;;;5055347;28;20423;-64
2024/03/03 06:46:22;;;;;;;51.90;33.90;;;9.50;99.90;;;;;;5053386;28;20502;-63
2024/03/03 06:48:48;;;;;;;55.60;36.20;;;9.50;99.90;;;;;;5055349;28;20433;-63
2024/03/03 06:51:14;;;;;;;53.70;37.27;;;9.50;99.90;;;;;;5055033;28;20461;-64
2024/03/03 06:53:40;;;;;;;50.73;34.17;;;9.50;99.90;;;;;;5057837;28;20604;-65
2024/03/03 06:56:17;;;;;;;51.57;35.17;;;9.50;99.90;;;;;;5055322;28;20460;-63
2024/03/03 06:58:44;;;;;;;53.83;34.67;;;9.60;99.90;;;;;;5058511;28;20523;-62
2024/03/03 07:01:10;;;;;;;48.90;34.47;;;9.60;99.90;;;;;;5059163;28;20482;-63
2024/03/03 07:06:05;;;;;;;48.80;34.10;;;9.80;99.90;;;;;;5064147;28;20468;-64
2024/03/03 07:08:30;;;;;;;46.80;32.20;;;9.90;99.90;;;;;;5055929;28;20433;-63
2024/03/03 07:10:56;;;;;;;50.70;35.90;;;9.90;99.90;;;;;;5061904;28;20429;-65
2024/03/03 07:13:21;;;;;;;43.17;34.47;;;10.10;99.90;;;;;;5057479;28;20284;-64
2024/03/03 07:15:47;;;;;;;50.27;34.23;;;10.10;99.90;;;;;;5066898;28;20206;-63
2024/03/03 07:18:12;;;;;;;46.93;32.60;;;10.10;99.90;;;;;;5055456;28;20661;-63
2024/03/03 07:20:38;;;;;;;53.57;36.17;;;10.20;99.90;;;;;;5053154;28;20183;-64
2024/03/03 07:23:04;;;;;;;47.20;33.13;;;10.30;99.90;;;;;;5055045;28;20174;-65
2024/03/03 07:25:30;;;;;;;47.07;34.50;;;10.30;99.90;;;;;;5053216;28;20568;-64
2024/03/03 07:27:56;;;;;;;48.30;33.53;;;10.30;99.90;;;;;;5057882;28;20637;-64
2024/03/03 07:30:22;;;;;;;42.23;30.00;;;10.40;99.90;;;;;;5062298;28;20579;-62
2024/03/03 07:32:47;;;;;;;42.27;32.60;;;10.40;99.90;;;;;;5054968;28;20285;-63
2024/03/03 07:35:13;;;;;;;42.00;33.00;;;10.40;99.90;;;;;;5056427;28;20468;-63
2024/03/03 07:37:38;;;;;;;50.40;31.40;;;10.30;99.90;;;;;;5059007;28;20185;-64
2024/03/03 07:40:05;;;;;;;47.63;30.67;;;10.30;99.90;;;;;;5056436;28;20181;-64
2024/03/03 07:42:31;;;;;;;45.60;32.90;;;10.40;99.90;;;;;;5055461;28;20179;-63
2024/03/03 07:44:56;;;;;;;43.77;31.53;;;10.40;99.90;;;;;;5061921;28;20537;-63
2024/03/03 07:47:22;;;;;;;43.03;30.40;;;10.50;99.90;;;;;;5066100;28;20425;-64
2024/03/03 07:49:47;;;;;;;48.10;33.63;;;10.60;99.90;;;;;;5065294;28;20555;-62
2024/03/03 07:52:13;;;;;;;46.10;33.80;;;10.70;99.90;;;;;;5070545;28;20186;-63
2024/03/03 07:54:39;;;;;;;42.13;30.27;;;10.80;99.90;;;;;;5065445;28;20656;-64
2024/03/03 07:57:04;;;;;;;45.30;31.50;;;10.90;99.90;;;;;;5056359;28;20293;-63
2024/03/03 07:59:30;;;;;;;44.43;29.87;;;11.00;99.90;;;;;;5053061;28;20616;-63
2024/03/03 08:01:56;;;;;;;38.80;29.10;;;11.10;99.90;;;;;;5052523;28;20528;-63
2024/03/03 08:04:21;;;;;;;42.00;28.80;;;11.20;99.90;;;;;;5055173;28;20194;-64
2024/03/03 08:06:47;;;;;;;35.63;27.10;;;11.50;99.90;;;;;;5051803;28;20637;-64
2024/03/03 08:09:13;;;;;;;41.90;28.03;;;12.10;99.90;;;;;;5053880;28;20182;-64
2024/03/03 08:11:38;;;;;;;34.70;24.63;;;12.30;99.90;;;;;;5051667;28;20251;-64
2024/03/03 08:14:04;;;;;;;35.27;24.33;;;12.30;99.90;;;;;;5055259;28;20328;-63
2024/03/03 08:16:31;;;;;;;33.47;24.13;;;12.50;99.90;;;;;;5055250;28;20204;-64
2024/03/03 08:18:57;;;;;;;27.77;22.90;;;12.80;99.90;;;;;;5062130;28;20195;-63
2024/03/03 08:21:22;;;;;;;31.80;22.10;;;13.20;99.90;;;;;;5057669;28;20901;-64
2024/03/03 08:23:48;;;;;;;32.70;22.77;;;13.60;99.90;;;;;;5058564;28;20970;-62
2024/03/03 08:26:14;;;;;;;26.10;21.50;;;13.60;99.90;;;;;;5063112;28;20199;-64
2024/03/03 08:28:39;;;;;;;27.10;20.63;;;13.70;99.90;;;;;;5057176;28;20221;-65
2024/03/03 08:31:05;;;;;;;27.17;22.67;;;13.80;99.90;;;;;;5064536;28;20452;-61
2024/03/03 08:33:31;;;;;;;69.63;50.47;;;14.20;99.90;;;;;;5063370;28;20311;-64
2024/03/03 08:35:57;;;;;;;66.50;47.33;;;14.40;99.90;;;;;;5061401;28;20658;-65
2024/03/03 08:38:22;;;;;;;34.30;27.13;;;15.20;99.90;;;;;;5062163;28;20461;-64
2024/03/03 08:40:48;;;;;;;30.67;23.30;;;15.20;99.90;;;;;;5063147;28;20561;-64
2024/03/03 08:43:14;;;;;;;30.10;21.73;;;14.70;99.90;;;;;;5064580;28;20184;-65
2024/03/03 08:45:39;;;;;;;31.00;23.23;;;15.00;99.90;;;;;;5065230;28;20634;-63
2024/03/03 08:48:05;;;;;;;28.73;20.97;;;15.30;99.90;;;;;;5063740;28;20199;-64
2024/03/03 08:50:31;;;;;;;32.40;24.47;;;15.40;99.90;;;;;;5068120;28;20182;-63
2024/03/03 08:52:57;;;;;;;41.33;27.27;;;15.70;99.90;;;;;;5070364;28;20789;-65
2024/03/03 08:55:23;;;;;;;30.57;25.90;;;16.30;99.90;;;;;;5066733;28;20214;-63
2024/03/03 08:57:49;;;;;;;29.27;22.23;;;16.70;99.90;;;;;;5058477;28;20430;-63
2024/03/03 09:00:15;;;;;;;24.80;19.03;;;16.60;99.90;;;;;;5061822;28;20498;-66
2024/03/03 09:02:41;;;;;;;22.33;19.70;;;16.10;99.90;;;;;;5069328;28;20535;-66
2024/03/03 09:05:08;;;;;;;32.43;23.47;;;15.90;99.90;;;;;;5065533;28;20495;-65
2024/03/03 09:07:35;;;;;;;30.60;25.30;;;15.50;99.90;;;;;;5064548;28;20489;-65
2024/03/03 09:10:00;;;;;;;30.67;21.37;;;15.40;99.90;;;;;;5066452;28;20427;-64
2024/03/03 09:12:26;;;;;;;44.80;30.93;;;16.30;99.90;;;;;;5071205;28;20426;-66
2024/03/03 09:14:54;;;;;;;43.53;30.43;;;16.50;99.90;;;;;;5069936;28;20291;-63
2024/03/03 09:17:20;;;;;;;44.53;31.27;;;16.80;99.90;;;;;;5060841;28;20192;-66
2024/03/03 09:19:45;;;;;;;33.83;26.10;;;16.80;99.90;;;;;;5062507;28;20735;-64
2024/03/03 09:22:12;;;;;;;43.80;30.13;;;17.10;99.90;;;;;;5059372;28;20478;-64
2024/03/03 09:24:40;;;;;;;39.37;28.30;;;17.40;99.90;;;;;;5049122;28;20561;-67
2024/03/03 09:27:06;;;;;;;31.67;22.57;;;17.00;99.90;;;;;;5067562;28;20428;-66
2024/03/03 09:29:31;;;;;;;30.00;21.10;;;16.70;99.90;;;;;;5061925;28;20422;-70
2024/03/03 09:31:58;;;;;;;24.90;20.63;;;17.30;99.90;;;;;;5056400;28;20191;-65
2024/03/03 09:34:24;;;;;;;30.37;20.37;;;17.10;99.90;;;;;;5053865;28;20300;-66
2024/03/03 09:36:50;;;;;;;22.30;18.40;;;16.40;99.90;;;;;;5054299;28;20427;-65
2024/03/03 09:39:16;;;;;;;25.47;18.87;;;15.80;99.90;;;;;;5068326;28;20455;-65
2024/03/03 09:41:43;;;;;;;21.00;16.70;;;15.60;99.90;;;;;;5061091;28;20176;-67
2024/03/03 09:44:11;;;;;;;28.43;18.87;;;15.40;99.90;;;;;;5053382;28;20225;-64
2024/03/03 09:46:41;;;;;;;18.73;14.90;;;15.60;99.90;;;;;;5058507;28;20535;-66
2024/03/03 09:49:20;;;;;;;21.77;14.87;;;15.40;99.90;;;;;;5058646;28;20866;-65
2024/03/03 09:51:47;;;;;;;19.43;15.20;;;15.60;99.90;;;;;;5062339;28;20491;-67
2024/03/03 09:54:20;;;;;;;25.17;17.00;;;15.80;99.90;;;;;;5060158;28;20783;-66
2024/03/03 09:56:47;;;;;;;20.10;16.30;;;15.70;99.90;;;;;;5053477;28;20445;-66
2024/03/03 09:59:14;;;;;;;16.43;14.73;;;15.70;99.90;;;;;;5059272;28;20472;-65
2024/03/03 10:01:47;;;;;;;19.90;14.20;;;15.40;99.90;;;;;;5063257;28;20500;-63
2024/03/03 10:04:14;;;;;;;23.00;16.10;;;15.00;99.90;;;;;;5063303;28;20446;-66
2024/03/03 10:06:41;;;;;;;18.90;14.53;;;14.80;99.90;;;;;;5070286;28;21060;-67
2024/03/03 10:09:12;;;;;;;19.20;15.17;;;14.70;99.90;;;;;;5059909;28;20434;-64
2024/03/03 10:11:40;;;;;;;18.47;14.77;;;14.40;99.90;;;;;;5045476;28;20958;-66
2024/03/03 10:14:05;;;;;;;17.60;14.70;;;14.30;99.90;;;;;;5057741;28;20423;-66
2024/03/03 10:16:36;;;;;;;16.07;14.10;;;14.20;99.90;;;;;;5057918;28;20450;-65
2024/03/03 10:19:03;;;;;;;18.50;13.80;;;14.20;99.90;;;;;;5042321;28;20181;-66
2024/03/03 10:21:37;;;;;;;19.57;14.07;;;14.10;99.90;;;;;;5056494;28;20524;-64
2024/03/03 10:24:18;;;;;;;21.60;15.27;;;13.90;99.90;;;;;;5051666;28;20988;-64
2024/03/03 10:26:44;;;;;;;17.63;14.30;;;13.90;99.90;;;;;;5052172;28;20449;-64
2024/03/03 10:29:10;;;;;;;24.27;15.30;;;14.00;99.90;;;;;;5057637;28;20908;-65
2024/03/03 10:31:36;;;;;;;17.60;14.77;;;14.00;99.90;;;;;;5061044;28;20240;-64
2024/03/03 10:34:01;;;;;;;17.90;14.40;;;14.10;99.90;;;;;;5060193;28;20418;-64
2024/03/03 10:36:28;;;;;;;13.97;12.00;;;14.30;99.90;;;;;;5058443;28;20220;-64
2024/03/03 10:38:54;;;;;;;17.33;13.47;;;14.20;99.90;;;;;;5058283;28;20180;-64
2024/03/03 10:41:20;;;;;;;19.63;12.90;;;14.30;99.90;;;;;;5062526;28;21153;-64
2024/03/03 10:43:46;;;;;;;15.23;10.67;;;14.30;99.90;;;;;;5061481;28;20268;-66
2024/03/03 10:46:12;;;;;;;13.40;11.23;;;14.20;99.90;;;;;;5069266;28;20455;-64
2024/03/03 10:48:40;;;;;;;14.37;11.40;;;14.20;99.90;;;;;;5066445;28;20643;-64
2024/03/03 10:51:07;;;;;;;14.10;11.20;;;14.30;99.90;;;;;;5065276;28;20424;-63
2024/03/03 10:53:32;;;;;;;17.40;11.80;;;14.30;99.90;;;;;;5071218;28;20504;-64
2024/03/03 10:55:59;;;;;;;14.17;10.60;;;14.30;99.90;;;;;;5060393;28;20548;-64
2024/03/03 10:58:26;;;;;;;12.93;10.63;;;14.30;99.90;;;;;;5057385;28;20702;-63
2024/03/03 11:00:53;;;;;;;13.93;10.30;;;14.20;99.90;;;;;;5065005;28;20427;-63
2024/03/03 11:03:19;;;;;;;11.37;10.00;;;14.20;99.90;;;;;;5059332;28;20521;-63
2024/03/03 11:05:45;;;;;;;15.87;12.43;;;14.20;99.90;;;;;;5060838;28;20538;-63
2024/03/03 11:08:13;;;;;;;13.47;10.87;;;14.30;99.90;;;;;;5068312;28;20415;-65
2024/03/03 11:10:39;;;;;;;15.60;11.60;;;14.10;99.90;;;;;;5051240;28;20920;-64
2024/03/03 11:13:06;;;;;;;16.40;11.37;;;14.10;99.90;;;;;;5059770;28;20419;-63
2024/03/03 11:15:37;;;;;;;18.00;12.03;;;14.20;99.90;;;;;;5069069;28;20206;-64
2024/03/03 11:18:04;;;;;;;15.97;11.50;;;14.00;99.90;;;;;;5059847;28;20417;-63
2024/03/03 11:20:39;;;;;;;131.17;79.40;;;14.00;99.90;;;;;;5064018;28;20415;-64
2024/03/03 11:23:48;;;;;;;16.93;13.90;;;14.40;99.90;;;;;;5051551;28;20475;-64
2024/03/03 11:26:27;;;;;;;20.23;12.40;;;14.40;99.90;;;;;;5048109;28;20461;-64
2024/03/03 11:28:59;;;;;;;17.77;13.53;;;14.50;99.90;;;;;;5064725;28;20416;-63
2024/03/03 11:31:25;;;;;;;13.23;10.97;;;14.60;99.90;;;;;;5050751;28;20800;-63
2024/03/03 11:33:52;;;;;;;14.93;11.30;;;14.60;99.90;;;;;;5050717;28;20426;-64
2024/03/03 11:36:19;;;;;;;12.90;10.77;;;14.60;99.90;;;;;;5053854;28;21009;-65
2024/03/03 11:38:45;;;;;;;13.93;11.70;;;14.60;99.90;;;;;;5065195;28;20523;-64
2024/03/03 11:41:12;;;;;;;15.67;12.13;;;14.60;99.90;;;;;;5065345;28;20406;-64
2024/03/03 11:43:41;;;;;;;14.37;11.43;;;14.80;99.90;;;;;;5061994;28;20432;-63
2024/03/03 11:46:08;;;;;;;13.93;12.17;;;15.00;99.90;;;;;;5052185;28;20478;-64
2024/03/03 11:48:34;;;;;;;15.70;11.33;;;14.90;99.90;;;;;;5057227;28;20975;-63
2024/03/03 11:51:23;;;;;;;17.33;10.60;;;14.90;99.90;;;;;;5053000;28;20410;-64
2024/03/03 11:54:00;;;;;;;14.93;12.00;;;15.00;99.90;;;;;;5065658;28;20438;-63
2024/03/03 11:56:29;;;;;;;11.70;9.80;;;15.10;99.90;;;;;;5057735;28;20981;-64
2024/03/03 11:58:54;;;;;;;15.00;11.30;;;15.20;99.90;;;;;;5061589;28;20418;-64
2024/03/03 12:01:23;;;;;;;12.93;9.73;;;15.30;99.90;;;;;;5061603;28;20462;-62
2024/03/03 12:03:49;;;;;;;14.10;10.90;;;15.30;99.90;;;;;;5063099;28;20176;-62
2024/03/03 12:06:19;;;;;;;14.40;12.70;;;15.20;99.90;;;;;;5067753;28;20462;-63
2024/03/03 12:08:53;;;;;;;18.50;13.73;;;15.00;99.90;;;;;;5072841;28;20428;-63
2024/03/03 12:11:19;;;;;;;18.50;15.10;;;15.00;99.90;;;;;;5065098;28;20991;-64
2024/03/03 12:13:44;;;;;;;18.37;15.80;;;14.80;99.90;;;;;;5073099;28;20464;-64
2024/03/03 12:16:10;;;;;;;21.83;15.90;;;14.60;99.90;;;;;;5072447;28;20560;-64
2024/03/03 12:18:35;;;;;;;20.40;14.20;;;14.80;99.90;;;;;;5068745;28;20487;-64
2024/03/03 12:21:01;;;;;;;17.00;12.87;;;14.80;99.90;;;;;;5061114;28;20194;-62
2024/03/03 12:23:28;;;;;;;14.80;13.00;;;14.70;99.90;;;;;;5064163;28;20186;-66
2024/03/03 12:25:55;;;;;;;13.87;11.30;;;14.50;99.90;;;;;;5072506;28;20437;-64
2024/03/03 12:28:24;;;;;;;16.60;11.90;;;14.50;99.90;;;;;;5061287;28;20428;-65
2024/03/03 12:30:49;;;;;;;15.23;11.47;;;14.50;99.90;;;;;;5061185;28;20815;-64
2024/03/03 12:33:17;;;;;;;13.47;10.97;;;14.50;99.90;;;;;;5062942;28;20467;-65